createdAt,value
2023-05-09T00:00:54.778Z,0.00
2023-05-09T00:01:54.735Z,0.00
2023-05-09T00:02:54.903Z,0.00
2023-05-09T00:03:54.745Z,0.00
2023-05-09T00:04:54.714Z,0.00
2023-05-09T00:05:54.710Z,0.00
2023-05-09T00:06:54.725Z,0.00
2023-05-09T00:07:54.733Z,0.00
2023-05-09T00:08:54.702Z,0.00
2023-05-09T00:09:54.699Z,0.00
2023-05-09T00:10:54.728Z,0.00
2023-05-09T00:11:54.719Z,0.00
2023-05-09T00:12:54.716Z,0.00
2023-05-09T00:13:54.701Z,0.00
2023-05-09T00:14:54.707Z,0.00
2023-05-09T00:15:54.686Z,0.00
2023-05-09T00:16:54.741Z,0.00
2023-05-09T00:18:36.171Z,0.00
2023-05-09T00:19:36.033Z,0.00
2023-05-09T00:20:36.043Z,0.00
2023-05-09T00:21:36.033Z,0.00
2023-05-09T00:22:36.035Z,0.00
2023-05-09T00:23:36.015Z,0.00
2023-05-09T00:24:36.047Z,0.00
2023-05-09T00:25:36.050Z,0.00
2023-05-09T00:26:36.027Z,0.00
2023-05-09T00:27:36.048Z,0.00
2023-05-09T00:28:36.057Z,0.00
2023-05-09T00:29:36.031Z,0.00
2023-05-09T00:30:36.047Z,0.00
2023-05-09T00:31:36.039Z,0.00
2023-05-09T00:32:36.104Z,0.00
2023-05-09T00:33:36.025Z,0.00
2023-05-09T00:34:36.131Z,0.00
2023-05-09T00:35:36.041Z,0.00
2023-05-09T00:36:36.017Z,0.00
2023-05-09T00:37:36.002Z,0.00
2023-05-09T00:38:36.006Z,0.00
2023-05-09T00:39:36.022Z,0.00
2023-05-09T00:40:36.043Z,0.00
2023-05-09T00:41:36.000Z,0.00
2023-05-09T00:42:36.007Z,0.00
2023-05-09T00:43:35.988Z,0.00
2023-05-09T00:44:36.008Z,0.00
2023-05-09T00:45:35.995Z,0.00
2023-05-09T00:46:36.068Z,0.00
2023-05-09T00:47:36.036Z,0.00
2023-05-09T00:48:35.994Z,0.00
2023-05-09T00:49:36.004Z,0.00
2023-05-09T00:50:36.106Z,0.00
2023-05-09T00:51:35.996Z,0.00
2023-05-09T00:52:36.035Z,0.00
2023-05-09T00:53:35.980Z,0.00
2023-05-09T00:54:35.991Z,0.00
2023-05-09T00:55:35.989Z,0.00
2023-05-09T00:56:35.986Z,0.00
2023-05-09T00:57:35.979Z,0.00
2023-05-09T00:58:35.978Z,0.00
2023-05-09T00:59:35.968Z,0.00
2023-05-09T01:00:35.976Z,0.00
2023-05-09T01:01:36.027Z,0.00
2023-05-09T01:02:36.059Z,0.00
2023-05-09T01:03:36.141Z,0.00
2023-05-09T01:04:35.987Z,0.00
2023-05-09T01:05:35.974Z,0.00
2023-05-09T01:06:36.095Z,0.00
2023-05-09T01:07:35.990Z,0.00
2023-05-09T01:08:35.971Z,0.00
2023-05-09T01:09:35.969Z,0.00
2023-05-09T01:10:35.964Z,0.00
2023-05-09T01:11:35.964Z,0.00
2023-05-09T01:12:35.955Z,0.00
2023-05-09T01:13:35.964Z,0.00
2023-05-09T01:14:35.970Z,0.00
2023-05-09T01:15:35.979Z,0.00
2023-05-09T01:16:35.981Z,0.00
2023-05-09T01:17:35.965Z,0.00
2023-05-09T01:18:35.938Z,0.00
2023-05-09T01:19:35.952Z,0.00
2023-05-09T01:20:35.949Z,0.00
2023-05-09T01:21:35.947Z,0.00
2023-05-09T01:22:36.133Z,0.00
2023-05-09T01:23:35.952Z,0.00
2023-05-09T01:24:35.954Z,0.00
2023-05-09T01:25:35.940Z,0.00
2023-05-09T01:26:35.963Z,0.00
2023-05-09T01:27:35.950Z,0.00
2023-05-09T01:28:35.953Z,0.00
2023-05-09T01:29:35.921Z,0.00
2023-05-09T01:30:35.938Z,0.00
2023-05-09T01:31:35.952Z,0.00
2023-05-09T01:32:35.934Z,0.00
2023-05-09T01:33:35.919Z,0.00
2023-05-09T01:34:35.944Z,0.00
2023-05-09T01:35:35.924Z,0.00
2023-05-09T01:36:35.927Z,0.00
2023-05-09T01:37:35.932Z,0.00
2023-05-09T01:38:36.104Z,0.00
2023-05-09T01:39:35.971Z,0.00
2023-05-09T01:40:35.955Z,0.00
2023-05-09T01:41:35.999Z,0.00
2023-05-09T01:43:18.470Z,0.00
2023-05-09T01:44:18.428Z,0.00
2023-05-09T01:45:18.376Z,0.00
2023-05-09T01:46:18.436Z,0.00
2023-05-09T01:47:18.388Z,0.00
2023-05-09T01:48:18.403Z,0.00
2023-05-09T01:49:18.390Z,0.00
2023-05-09T01:50:18.359Z,0.00
2023-05-09T01:51:18.373Z,0.00
2023-05-09T01:52:18.375Z,0.00
2023-05-09T01:53:18.382Z,0.00
2023-05-09T01:54:18.471Z,0.00
2023-05-09T01:55:18.370Z,0.00
2023-05-09T01:56:18.371Z,0.00
2023-05-09T01:57:18.378Z,0.00
2023-05-09T01:58:18.349Z,0.00
2023-05-09T01:59:18.352Z,0.00
2023-05-09T02:00:18.358Z,0.00
2023-05-09T02:01:18.426Z,0.00
2023-05-09T02:02:18.454Z,0.00
2023-05-09T02:03:18.422Z,0.00
2023-05-09T02:04:18.364Z,0.00
2023-05-09T02:05:18.370Z,0.00
2023-05-09T02:06:18.351Z,0.00
2023-05-09T02:07:18.355Z,0.00
2023-05-09T02:08:18.360Z,0.00
2023-05-09T02:09:18.356Z,0.00
2023-05-09T02:10:18.449Z,0.00
2023-05-09T02:11:18.348Z,0.00
2023-05-09T02:12:18.366Z,0.00
2023-05-09T02:13:18.498Z,0.00
2023-05-09T02:14:18.332Z,0.00
2023-05-09T02:15:18.338Z,0.00
2023-05-09T02:16:20.038Z,0.00
2023-05-09T02:17:18.342Z,0.00
2023-05-09T02:18:18.316Z,0.00
2023-05-09T02:19:18.335Z,0.00
2023-05-09T02:20:18.325Z,0.00
2023-05-09T02:21:18.352Z,0.00
2023-05-09T02:22:18.321Z,0.00
2023-05-09T02:23:18.330Z,0.00
2023-05-09T02:24:18.331Z,0.00
2023-05-09T02:25:18.313Z,0.00
2023-05-09T02:26:18.452Z,0.00
2023-05-09T02:27:18.316Z,0.00
2023-05-09T02:28:18.310Z,0.00
2023-05-09T02:29:18.317Z,0.00
2023-05-09T02:30:18.308Z,0.00
2023-05-09T02:31:18.325Z,0.00
2023-05-09T02:32:18.331Z,0.00
2023-05-09T02:33:18.316Z,0.00
2023-05-09T02:34:18.302Z,0.00
2023-05-09T02:35:18.309Z,0.00
2023-05-09T02:36:18.283Z,0.00
2023-05-09T02:37:18.312Z,0.00
2023-05-09T02:38:18.295Z,0.00
2023-05-09T02:39:18.294Z,0.00
2023-05-09T02:40:18.277Z,0.00
2023-05-09T02:41:18.309Z,0.00
2023-05-09T02:42:18.405Z,0.00
2023-05-09T02:43:18.286Z,0.00
2023-05-09T02:44:18.289Z,0.00
2023-05-09T02:45:18.302Z,0.00
2023-05-09T02:46:18.341Z,0.00
2023-05-09T02:47:18.286Z,0.00
2023-05-09T02:48:18.289Z,0.00
2023-05-09T02:49:31.381Z,0.00
2023-05-09T02:50:18.266Z,0.00
2023-05-09T02:51:18.298Z,0.00
2023-05-09T02:52:18.267Z,0.00
2023-05-09T02:53:18.291Z,0.00
2023-05-09T02:54:18.275Z,0.00
2023-05-09T02:55:18.264Z,0.00
2023-05-09T02:56:18.274Z,0.00
2023-05-09T02:57:18.271Z,0.00
2023-05-09T02:58:18.404Z,0.00
2023-05-09T02:59:18.272Z,0.00
2023-05-09T03:00:18.257Z,0.00
2023-05-09T03:01:18.288Z,0.00
2023-05-09T03:02:18.261Z,0.00
2023-05-09T03:03:18.538Z,0.00
2023-05-09T03:04:18.257Z,0.00
2023-05-09T03:05:18.257Z,0.00
2023-05-09T03:06:18.242Z,0.00
2023-05-09T03:07:18.245Z,0.00
2023-05-09T03:08:18.248Z,0.00
2023-05-09T03:09:18.246Z,0.00
2023-05-09T03:10:18.243Z,0.00
2023-05-09T03:11:18.234Z,0.00
2023-05-09T03:12:18.247Z,0.00
2023-05-09T03:13:18.311Z,0.00
2023-05-09T03:14:18.382Z,0.00
2023-05-09T03:15:18.237Z,0.00
2023-05-09T03:16:18.299Z,0.00
2023-05-09T03:17:18.229Z,0.00
2023-05-09T03:18:18.227Z,0.00
2023-05-09T03:19:18.252Z,0.00
2023-05-09T03:20:18.260Z,0.00
2023-05-09T03:21:18.247Z,0.00
2023-05-09T03:22:18.236Z,0.00
2023-05-09T03:23:18.229Z,0.00
2023-05-09T03:24:18.253Z,0.00
2023-05-09T03:25:18.228Z,0.00
2023-05-09T03:26:18.228Z,0.00
2023-05-09T03:27:18.220Z,0.00
2023-05-09T03:28:18.220Z,0.00
2023-05-09T03:29:18.212Z,0.00
2023-05-09T03:30:18.340Z,0.00
2023-05-09T03:31:18.228Z,0.00
2023-05-09T03:32:18.213Z,0.00
2023-05-09T03:33:18.227Z,0.00
2023-05-09T03:34:18.199Z,0.00
2023-05-09T03:35:18.209Z,0.00
2023-05-09T03:36:18.196Z,0.00
2023-05-09T03:37:18.194Z,0.00
2023-05-09T03:38:18.214Z,0.00
2023-05-09T03:39:18.199Z,0.00
2023-05-09T03:40:18.187Z,0.00
2023-05-09T03:41:18.187Z,0.00
2023-05-09T03:42:18.201Z,0.00
2023-05-09T03:43:18.188Z,0.00
2023-05-09T03:44:18.209Z,0.00
2023-05-09T03:45:18.200Z,0.00
2023-05-09T03:46:18.307Z,0.00
2023-05-09T03:47:18.206Z,0.00
2023-05-09T03:48:18.192Z,0.00
2023-05-09T03:49:18.189Z,0.00
2023-05-09T03:50:18.194Z,0.00
2023-05-09T03:51:18.229Z,0.00
2023-05-09T03:52:18.206Z,0.00
2023-05-09T03:53:18.190Z,0.00
2023-05-09T03:54:18.169Z,0.00
2023-05-09T03:55:18.169Z,0.00
2023-05-09T03:56:18.173Z,0.00
2023-05-09T03:57:18.189Z,0.00
2023-05-09T03:58:18.166Z,0.00
2023-05-09T03:59:18.194Z,0.00
2023-05-09T04:00:18.169Z,0.00
2023-05-09T04:01:18.162Z,0.00
2023-05-09T04:02:18.315Z,0.00
2023-05-09T04:03:18.219Z,0.00
2023-05-09T04:04:18.179Z,0.00
2023-05-09T04:05:18.192Z,0.00
2023-05-09T04:06:18.170Z,0.00
2023-05-09T04:07:18.163Z,0.00
2023-05-09T04:08:18.168Z,0.00
2023-05-09T04:09:18.155Z,0.00
2023-05-09T04:10:18.143Z,0.00
2023-05-09T04:11:18.153Z,0.00
2023-05-09T04:12:18.144Z,0.00
2023-05-09T04:13:18.187Z,0.00
2023-05-09T04:14:18.151Z,0.00
2023-05-09T04:15:18.158Z,0.00
2023-05-09T04:16:18.182Z,0.00
2023-05-09T04:17:18.134Z,0.00
2023-05-09T04:18:18.279Z,0.00
2023-05-09T04:19:18.145Z,0.00
2023-05-09T04:20:18.140Z,0.00
2023-05-09T04:21:18.153Z,0.00
2023-05-09T04:22:18.154Z,0.00
2023-05-09T04:23:18.120Z,0.00
2023-05-09T04:24:18.212Z,0.00
2023-05-09T04:25:18.120Z,0.00
2023-05-09T04:26:18.149Z,0.00
2023-05-09T04:27:18.129Z,0.00
2023-05-09T04:28:18.124Z,0.00
2023-05-09T04:29:18.103Z,0.00
2023-05-09T04:30:18.119Z,0.00
2023-05-09T04:31:18.161Z,0.00
2023-05-09T04:32:18.149Z,0.00
2023-05-09T04:33:18.145Z,0.00
2023-05-09T04:34:18.227Z,0.00
2023-05-09T04:35:20.569Z,0.00
2023-05-09T04:36:18.105Z,0.00
2023-05-09T04:37:18.112Z,0.00
2023-05-09T04:38:18.119Z,0.00
2023-05-09T04:39:18.114Z,0.00
2023-05-09T04:40:18.110Z,0.00
2023-05-09T04:41:18.099Z,0.00
2023-05-09T04:42:18.115Z,0.00
2023-05-09T04:43:18.089Z,0.00
2023-05-09T04:44:18.107Z,0.00
2023-05-09T04:45:18.158Z,0.00
2023-05-09T04:46:18.153Z,0.00
2023-05-09T04:47:18.287Z,0.00
2023-05-09T04:48:18.084Z,0.00
2023-05-09T04:49:18.104Z,0.00
2023-05-09T04:50:18.214Z,0.00
2023-05-09T04:51:18.080Z,0.00
2023-05-09T04:52:18.075Z,0.00
2023-05-09T04:53:18.091Z,0.00
2023-05-09T04:54:18.101Z,0.00
2023-05-09T04:55:18.092Z,0.00
2023-05-09T04:56:18.093Z,0.00
2023-05-09T04:57:18.963Z,0.00
2023-05-09T04:58:18.070Z,0.00
2023-05-09T04:59:18.068Z,0.00
2023-05-09T05:00:18.088Z,0.00
2023-05-09T05:01:18.162Z,0.00
2023-05-09T05:02:18.076Z,0.00
2023-05-09T05:03:18.084Z,0.00
2023-05-09T05:04:18.161Z,0.00
2023-05-09T05:05:24.357Z,0.00
2023-05-09T05:06:18.194Z,0.00
2023-05-09T05:07:18.068Z,0.00
2023-05-09T05:08:18.052Z,0.00
2023-05-09T05:09:18.066Z,0.00
2023-05-09T05:10:18.112Z,0.00
2023-05-09T05:11:18.086Z,0.00
2023-05-09T05:12:18.049Z,0.00
2023-05-09T05:13:18.069Z,0.00
2023-05-09T05:14:18.052Z,0.00
2023-05-09T05:15:18.057Z,0.00
2023-05-09T05:16:18.092Z,0.00
2023-05-09T05:17:18.050Z,0.00
2023-05-09T05:18:18.067Z,0.00
2023-05-09T05:19:18.055Z,0.00
2023-05-09T05:20:18.041Z,0.00
2023-05-09T05:21:18.053Z,0.00
2023-05-09T05:22:18.164Z,0.00
2023-05-09T05:23:18.051Z,0.00
2023-05-09T05:24:18.053Z,0.00
2023-05-09T05:25:18.021Z,0.00
2023-05-09T05:26:18.064Z,0.00
2023-05-09T05:27:18.035Z,0.00
2023-05-09T05:28:18.051Z,0.00
2023-05-09T05:29:18.036Z,0.00
2023-05-09T05:30:18.020Z,0.00
2023-05-09T05:31:18.072Z,0.00
2023-05-09T05:32:18.069Z,0.00
2023-05-09T05:33:18.020Z,5.63
2023-05-09T05:34:18.025Z,5.63
2023-05-09T05:35:18.028Z,5.63
2023-05-09T05:36:18.024Z,5.63
2023-05-09T05:37:18.026Z,5.63
2023-05-09T05:38:18.152Z,0.00
2023-05-09T05:39:18.010Z,0.00
2023-05-09T05:40:18.014Z,0.00
2023-05-09T05:41:18.012Z,0.00
2023-05-09T05:42:18.018Z,0.00
2023-05-09T05:43:18.013Z,0.00
2023-05-09T05:44:18.012Z,0.00
2023-05-09T05:45:18.104Z,0.00
2023-05-09T05:46:18.150Z,0.00
2023-05-09T05:47:18.012Z,0.00
2023-05-09T05:48:18.004Z,0.00
2023-05-09T05:49:17.998Z,5.63
2023-05-09T05:50:17.992Z,5.63
2023-05-09T05:51:18.004Z,5.63
2023-05-09T05:52:17.990Z,5.63
2023-05-09T05:53:18.034Z,5.63
2023-05-09T05:54:18.100Z,5.63
2023-05-09T05:55:18.048Z,5.63
2023-05-09T05:56:17.999Z,5.63
2023-05-09T05:57:18.000Z,5.63
2023-05-09T05:58:17.993Z,5.63
2023-05-09T05:59:17.983Z,11.25
2023-05-09T06:00:17.996Z,16.88
2023-05-09T06:01:17.997Z,11.25
2023-05-09T06:02:17.992Z,16.88
2023-05-09T06:03:18.045Z,11.25
2023-05-09T06:04:18.052Z,16.88
2023-05-09T06:05:17.987Z,16.88
2023-05-09T06:06:17.993Z,16.88
2023-05-09T06:07:17.975Z,16.88
2023-05-09T06:08:17.987Z,11.25
2023-05-09T06:09:17.969Z,11.25
2023-05-09T06:10:18.109Z,11.25
2023-05-09T06:11:17.993Z,11.25
2023-05-09T06:12:17.991Z,11.25
2023-05-09T06:13:17.985Z,11.25
2023-05-09T06:14:17.975Z,11.25
2023-05-09T06:15:18.044Z,11.25
2023-05-09T06:16:19.986Z,11.25
2023-05-09T06:17:18.145Z,11.25
2023-05-09T06:18:17.966Z,11.25
2023-05-09T06:19:17.952Z,11.25
2023-05-09T06:20:18.006Z,11.25
2023-05-09T06:21:17.955Z,11.25
2023-05-09T06:22:17.957Z,11.25
2023-05-09T06:23:17.966Z,11.25
2023-05-09T06:24:31.815Z,16.88
2023-05-09T06:25:17.961Z,16.88
2023-05-09T06:26:18.095Z,16.88
2023-05-09T06:27:17.967Z,16.88
2023-05-09T06:28:17.948Z,16.88
2023-05-09T06:29:17.963Z,16.88
2023-05-09T06:30:26.420Z,16.88
2023-05-09T06:31:18.009Z,16.88
2023-05-09T06:32:17.968Z,16.88
2023-05-09T06:33:17.952Z,16.88
2023-05-09T06:34:17.942Z,11.25
2023-05-09T06:35:17.957Z,11.25
2023-05-09T06:36:17.959Z,11.25
2023-05-09T06:37:17.955Z,11.25
2023-05-09T06:38:17.947Z,11.25
2023-05-09T06:39:17.934Z,11.25
2023-05-09T06:40:17.965Z,16.88
2023-05-09T06:41:17.962Z,16.88
2023-05-09T06:42:18.060Z,16.88
2023-05-09T06:43:17.950Z,16.88
2023-05-09T06:44:17.951Z,16.88
2023-05-09T06:45:18.265Z,16.88
2023-05-09T06:46:18.015Z,16.88
2023-05-09T06:47:17.926Z,16.88
2023-05-09T06:48:17.955Z,16.88
2023-05-09T06:49:17.940Z,22.50
2023-05-09T06:50:17.951Z,16.88
2023-05-09T06:51:17.950Z,16.88
2023-05-09T06:52:17.947Z,16.88
2023-05-09T06:53:17.946Z,11.25
2023-05-09T06:54:17.929Z,11.25
2023-05-09T06:55:17.988Z,11.25
2023-05-09T06:56:19.918Z,11.25
2023-05-09T06:57:17.937Z,11.25
2023-05-09T06:58:18.033Z,11.25
2023-05-09T06:59:17.925Z,11.25
2023-05-09T07:00:17.917Z,11.25
2023-05-09T07:01:17.980Z,16.88
2023-05-09T07:02:17.931Z,22.50
2023-05-09T07:03:17.910Z,22.50
2023-05-09T07:04:17.961Z,28.13
2023-05-09T07:05:18.057Z,22.50
2023-05-09T07:06:17.953Z,33.75
2023-05-09T07:07:17.930Z,28.13
2023-05-09T07:08:17.932Z,22.50
2023-05-09T07:09:17.921Z,39.38
2023-05-09T07:10:17.934Z,39.38
2023-05-09T07:11:17.935Z,45.00
2023-05-09T07:12:17.931Z,50.63
2023-05-09T07:13:17.932Z,73.13
2023-05-09T07:14:17.973Z,67.50
2023-05-09T07:15:28.766Z,73.13
2023-05-09T07:16:18.026Z,67.50
2023-05-09T07:17:23.579Z,56.25
2023-05-09T07:18:17.913Z,45.00
2023-05-09T07:19:17.908Z,39.38
2023-05-09T07:20:17.921Z,39.38
2023-05-09T07:21:17.926Z,39.38
2023-05-09T07:22:17.997Z,56.25
2023-05-09T07:23:17.905Z,56.25
2023-05-09T07:24:17.928Z,61.88
2023-05-09T07:25:17.920Z,61.88
2023-05-09T07:26:17.907Z,67.50
2023-05-09T07:27:17.916Z,61.88
2023-05-09T07:28:17.914Z,56.25
2023-05-09T07:29:17.896Z,45.00
2023-05-09T07:30:18.041Z,45.00
2023-05-09T07:31:17.962Z,39.38
2023-05-09T07:32:17.915Z,39.38
2023-05-09T07:33:17.915Z,33.75
2023-05-09T07:34:17.893Z,39.38
2023-05-09T07:35:17.903Z,39.38
2023-05-09T07:36:17.891Z,39.38
2023-05-09T07:37:17.893Z,28.13
2023-05-09T07:38:17.904Z,16.88
2023-05-09T07:39:17.900Z,28.13
2023-05-09T07:40:18.192Z,22.50
2023-05-09T07:41:17.891Z,28.13
2023-05-09T07:42:17.913Z,33.75
2023-05-09T07:43:17.884Z,45.00
2023-05-09T07:44:17.876Z,45.00
2023-05-09T07:45:18.818Z,28.13
2023-05-09T07:46:18.127Z,28.13
2023-05-09T07:47:17.904Z,33.75
2023-05-09T07:48:17.892Z,28.13
2023-05-09T07:49:17.867Z,28.13
2023-05-09T07:50:17.903Z,28.13
2023-05-09T07:51:17.874Z,28.13
2023-05-09T07:52:17.891Z,28.13
2023-05-09T07:53:17.891Z,33.75
2023-05-09T07:54:17.891Z,33.75
2023-05-09T07:55:18.197Z,28.13
2023-05-09T07:56:17.874Z,28.13
2023-05-09T07:57:17.896Z,28.13
2023-05-09T07:58:17.920Z,22.50
2023-05-09T07:59:17.867Z,22.50
2023-05-09T08:00:17.893Z,22.50
2023-05-09T08:01:17.893Z,28.13
2023-05-09T08:02:18.044Z,28.13
2023-05-09T08:03:18.089Z,28.13
2023-05-09T08:04:17.929Z,33.75
2023-05-09T08:05:18.074Z,33.75
2023-05-09T08:06:17.885Z,33.75
2023-05-09T08:07:17.873Z,33.75
2023-05-09T08:08:17.857Z,28.13
2023-05-09T08:09:17.860Z,33.75
2023-05-09T08:10:17.905Z,33.75
2023-05-09T08:11:17.880Z,33.75
2023-05-09T08:12:17.886Z,33.75
2023-05-09T08:13:17.943Z,39.38
2023-05-09T08:14:17.856Z,39.38
2023-05-09T08:15:18.105Z,45.00
2023-05-09T08:16:17.943Z,45.00
2023-05-09T08:17:17.858Z,45.00
2023-05-09T08:18:17.983Z,50.63
2023-05-09T08:19:17.887Z,56.25
2023-05-09T08:20:17.885Z,50.63
2023-05-09T08:21:19.161Z,39.38
2023-05-09T08:22:17.873Z,33.75
2023-05-09T08:23:17.873Z,22.50
2023-05-09T08:24:17.872Z,28.13
2023-05-09T08:25:17.926Z,22.50
2023-05-09T08:26:17.866Z,50.63
2023-05-09T08:27:17.867Z,39.38
2023-05-09T08:28:18.013Z,67.50
2023-05-09T08:29:17.864Z,84.38
2023-05-09T08:30:17.858Z,106.88
2023-05-09T08:31:17.897Z,140.63
2023-05-09T08:32:17.849Z,185.63
2023-05-09T08:33:17.878Z,174.38
2023-05-09T08:34:17.974Z,202.50
2023-05-09T08:35:17.952Z,247.50
2023-05-09T08:36:17.851Z,270.00
2023-05-09T08:37:17.861Z,286.88
2023-05-09T08:38:17.867Z,286.88
2023-05-09T08:39:17.867Z,247.50
2023-05-09T08:40:17.927Z,208.13
2023-05-09T08:41:17.853Z,146.25
2023-05-09T08:42:17.866Z,135.00
2023-05-09T08:43:17.855Z,129.38
2023-05-09T08:44:17.850Z,135.00
2023-05-09T08:45:17.872Z,118.13
2023-05-09T08:46:17.926Z,135.00
2023-05-09T08:47:17.853Z,196.88
2023-05-09T08:48:17.869Z,118.13
2023-05-09T08:49:17.842Z,146.25
2023-05-09T08:50:18.218Z,281.25
2023-05-09T08:51:17.867Z,286.88
2023-05-09T08:52:17.840Z,247.50
2023-05-09T08:53:17.858Z,151.88
2023-05-09T08:54:17.847Z,56.25
2023-05-09T08:55:17.845Z,28.13
2023-05-09T08:56:17.848Z,22.50
2023-05-09T08:57:17.862Z,16.88
2023-05-09T08:58:17.844Z,16.88
2023-05-09T08:59:17.848Z,16.88
2023-05-09T09:00:20.236Z,16.88
2023-05-09T09:01:17.853Z,16.88
2023-05-09T09:02:17.832Z,16.88
2023-05-09T09:03:17.833Z,16.88
2023-05-09T09:04:17.851Z,11.25
2023-05-09T09:05:39.469Z,11.25
2023-05-09T09:06:17.974Z,11.25
2023-05-09T09:07:17.842Z,11.25
2023-05-09T09:08:17.824Z,11.25
2023-05-09T09:09:17.836Z,11.25
2023-05-09T09:10:17.832Z,16.88
2023-05-09T09:11:17.821Z,16.88
2023-05-09T09:12:17.826Z,16.88
2023-05-09T09:13:17.947Z,16.88
2023-05-09T09:14:17.831Z,16.88
2023-05-09T09:15:17.824Z,11.25
2023-05-09T09:16:17.863Z,11.25
2023-05-09T09:17:19.890Z,11.25
2023-05-09T09:18:17.835Z,11.25
2023-05-09T09:19:17.835Z,11.25
2023-05-09T09:20:17.827Z,11.25
2023-05-09T09:21:17.812Z,11.25
2023-05-09T09:22:17.954Z,11.25
2023-05-09T09:23:17.822Z,11.25
2023-05-09T09:24:17.831Z,11.25
2023-05-09T09:25:17.824Z,16.88
2023-05-09T09:26:17.810Z,16.88
2023-05-09T09:27:17.806Z,16.88
2023-05-09T09:28:17.822Z,16.88
2023-05-09T09:29:17.823Z,16.88
2023-05-09T09:30:17.810Z,16.88
2023-05-09T09:31:17.837Z,16.88
2023-05-09T09:32:17.891Z,16.88
2023-05-09T09:33:17.806Z,16.88
2023-05-09T09:34:17.812Z,16.88
2023-05-09T09:35:17.819Z,16.88
2023-05-09T09:36:17.824Z,16.88
2023-05-09T09:37:17.808Z,16.88
2023-05-09T09:38:17.942Z,16.88
2023-05-09T09:39:17.876Z,16.88
2023-05-09T09:40:17.986Z,16.88
2023-05-09T09:41:17.800Z,16.88
2023-05-09T09:42:17.818Z,16.88
2023-05-09T09:43:17.806Z,16.88
2023-05-09T09:44:17.820Z,16.88
2023-05-09T09:45:17.820Z,16.88
2023-05-09T09:46:17.903Z,16.88
2023-05-09T09:47:17.800Z,16.88
2023-05-09T09:48:17.817Z,16.88
2023-05-09T09:49:17.799Z,16.88
2023-05-09T09:50:17.954Z,16.88
2023-05-09T09:51:17.816Z,16.88
2023-05-09T09:52:17.809Z,16.88
2023-05-09T09:53:17.787Z,16.88
2023-05-09T09:54:17.927Z,16.88
2023-05-09T09:55:17.787Z,16.88
2023-05-09T09:56:17.811Z,16.88
2023-05-09T09:57:17.798Z,16.88
2023-05-09T09:58:17.806Z,16.88
2023-05-09T09:59:17.821Z,16.88
2023-05-09T10:00:17.999Z,16.88
2023-05-09T10:01:17.863Z,16.88
2023-05-09T10:02:17.801Z,16.88
2023-05-09T10:03:17.891Z,16.88
2023-05-09T10:04:17.832Z,16.88
2023-05-09T10:05:17.782Z,16.88
2023-05-09T10:06:17.785Z,16.88
2023-05-09T10:07:17.794Z,16.88
2023-05-09T10:08:17.775Z,16.88
2023-05-09T10:09:17.799Z,16.88
2023-05-09T10:10:17.978Z,16.88
2023-05-09T10:11:17.798Z,16.88
2023-05-09T10:12:17.788Z,16.88
2023-05-09T10:13:17.845Z,16.88
2023-05-09T10:14:17.782Z,16.88
2023-05-09T10:15:17.768Z,16.88
2023-05-09T10:16:21.382Z,11.25
2023-05-09T10:17:17.942Z,11.25
2023-05-09T10:18:17.963Z,11.25
2023-05-09T10:19:17.793Z,11.25
2023-05-09T10:20:17.789Z,16.88
2023-05-09T10:21:17.802Z,16.88
2023-05-09T10:22:17.808Z,16.88
2023-05-09T10:23:17.766Z,16.88
2023-05-09T10:24:17.789Z,16.88
2023-05-09T10:25:17.827Z,16.88
2023-05-09T10:26:17.884Z,16.88
2023-05-09T10:27:17.774Z,16.88
2023-05-09T10:28:17.765Z,16.88
2023-05-09T10:29:17.777Z,16.88
2023-05-09T10:30:17.772Z,16.88
2023-05-09T10:31:17.800Z,16.88
2023-05-09T10:32:17.809Z,16.88
2023-05-09T10:33:17.786Z,16.88
2023-05-09T10:34:17.769Z,16.88
2023-05-09T10:35:17.831Z,16.88
2023-05-09T10:36:17.768Z,16.88
2023-05-09T10:37:17.767Z,11.25
2023-05-09T10:38:17.784Z,11.25
2023-05-09T10:39:17.766Z,11.25
2023-05-09T10:40:17.796Z,11.25
2023-05-09T10:41:17.765Z,11.25
2023-05-09T10:42:17.864Z,11.25
2023-05-09T10:43:17.770Z,11.25
2023-05-09T10:44:17.748Z,11.25
2023-05-09T10:45:18.135Z,11.25
2023-05-09T10:46:17.893Z,11.25
2023-05-09T10:47:17.761Z,11.25
2023-05-09T10:48:17.750Z,11.25
2023-05-09T10:49:17.750Z,11.25
2023-05-09T10:50:17.786Z,11.25
2023-05-09T10:51:17.773Z,11.25
2023-05-09T10:52:17.744Z,16.88
2023-05-09T10:53:17.799Z,16.88
2023-05-09T10:54:17.765Z,16.88
2023-05-09T10:55:17.735Z,16.88
2023-05-09T10:56:17.730Z,11.25
2023-05-09T10:57:17.753Z,11.25
2023-05-09T10:58:17.886Z,11.25
2023-05-09T10:59:17.747Z,11.25
2023-05-09T11:00:17.750Z,11.25
2023-05-09T11:01:17.769Z,11.25
2023-05-09T11:02:17.724Z,11.25
2023-05-09T11:03:17.782Z,11.25
2023-05-09T11:04:17.744Z,11.25
2023-05-09T11:05:17.755Z,11.25
2023-05-09T11:06:17.747Z,11.25
2023-05-09T11:07:17.726Z,16.88
2023-05-09T11:08:17.723Z,16.88
2023-05-09T11:09:17.727Z,16.88
2023-05-09T11:10:17.732Z,16.88
2023-05-09T11:11:17.762Z,16.88
2023-05-09T11:12:17.721Z,16.88
2023-05-09T11:13:17.901Z,11.25
2023-05-09T11:14:17.859Z,11.25
2023-05-09T11:15:17.739Z,11.25
2023-05-09T11:16:17.749Z,11.25
2023-05-09T11:17:17.724Z,16.88
2023-05-09T11:18:18.966Z,16.88
2023-05-09T11:19:17.729Z,16.88
2023-05-09T11:20:17.714Z,11.25
2023-05-09T11:21:17.720Z,11.25
2023-05-09T11:22:17.737Z,11.25
2023-05-09T11:23:17.718Z,11.25
2023-05-09T11:24:17.732Z,11.25
2023-05-09T11:25:17.992Z,11.25
2023-05-09T11:26:17.734Z,11.25
2023-05-09T11:27:17.722Z,11.25
2023-05-09T11:28:17.724Z,11.25
2023-05-09T11:29:17.712Z,11.25
2023-05-09T11:30:17.834Z,11.25
2023-05-09T11:31:17.748Z,11.25
2023-05-09T11:32:17.727Z,11.25
2023-05-09T11:33:17.709Z,11.25
2023-05-09T11:34:17.709Z,11.25
2023-05-09T11:35:17.983Z,11.25
2023-05-09T11:36:17.712Z,11.25
2023-05-09T11:37:17.737Z,11.25
2023-05-09T11:38:17.713Z,11.25
2023-05-09T11:39:17.723Z,11.25
2023-05-09T11:40:17.731Z,11.25
2023-05-09T11:41:17.723Z,16.88
2023-05-09T11:42:17.722Z,16.88
2023-05-09T11:43:17.701Z,11.25
2023-05-09T11:44:17.721Z,11.25
2023-05-09T11:45:18.024Z,11.25
2023-05-09T11:46:17.936Z,11.25
2023-05-09T11:47:17.700Z,11.25
2023-05-09T11:48:17.703Z,11.25
2023-05-09T11:49:17.700Z,11.25
2023-05-09T11:50:17.725Z,11.25
2023-05-09T11:51:17.694Z,11.25
2023-05-09T11:52:17.707Z,11.25
2023-05-09T11:53:17.717Z,11.25
2023-05-09T11:54:17.705Z,11.25
2023-05-09T11:55:18.024Z,11.25
2023-05-09T11:56:17.695Z,16.88
2023-05-09T11:57:17.686Z,16.88
2023-05-09T11:58:17.691Z,16.88
2023-05-09T11:59:17.690Z,11.25
2023-05-09T12:00:17.700Z,11.25
2023-05-09T12:01:17.682Z,11.25
2023-05-09T12:02:17.877Z,11.25
2023-05-09T12:03:17.886Z,11.25
2023-05-09T12:04:17.719Z,11.25
2023-05-09T12:05:17.843Z,11.25
2023-05-09T12:06:17.687Z,11.25
2023-05-09T12:07:17.677Z,11.25
2023-05-09T12:08:17.694Z,11.25
2023-05-09T12:09:17.673Z,11.25
2023-05-09T12:10:17.727Z,11.25
2023-05-09T12:11:17.692Z,11.25
2023-05-09T12:12:17.681Z,11.25
2023-05-09T12:13:17.716Z,11.25
2023-05-09T12:14:17.672Z,11.25
2023-05-09T12:15:18.134Z,11.25
2023-05-09T12:16:17.729Z,11.25
2023-05-09T12:17:17.689Z,11.25
2023-05-09T12:18:17.796Z,11.25
2023-05-09T12:19:17.662Z,11.25
2023-05-09T12:20:17.665Z,11.25
2023-05-09T12:21:17.682Z,11.25
2023-05-09T12:22:17.667Z,11.25
2023-05-09T12:23:17.673Z,11.25
2023-05-09T12:24:17.683Z,5.63
2023-05-09T12:25:17.882Z,5.63
2023-05-09T12:26:17.691Z,11.25
2023-05-09T12:27:17.654Z,5.63
2023-05-09T12:28:17.671Z,5.63
2023-05-09T12:29:17.672Z,5.63
2023-05-09T12:30:17.677Z,5.63
2023-05-09T12:31:17.699Z,5.63
2023-05-09T12:32:17.689Z,5.63
2023-05-09T12:33:17.670Z,5.63
2023-05-09T12:34:17.795Z,5.63
2023-05-09T12:35:17.793Z,5.63
2023-05-09T12:36:17.677Z,5.63
2023-05-09T12:37:17.670Z,5.63
2023-05-09T12:38:17.688Z,11.25
2023-05-09T12:39:17.664Z,11.25
2023-05-09T12:40:17.670Z,11.25
2023-05-09T12:41:34.836Z,11.25
2023-05-09T12:42:17.665Z,11.25
2023-05-09T12:43:17.678Z,11.25
2023-05-09T12:44:17.664Z,11.25
2023-05-09T12:45:17.941Z,11.25
2023-05-09T12:46:17.686Z,11.25
2023-05-09T12:47:17.842Z,11.25
2023-05-09T12:48:17.658Z,11.25
2023-05-09T12:49:17.639Z,11.25
2023-05-09T12:50:17.782Z,11.25
2023-05-09T12:51:17.655Z,11.25
2023-05-09T12:52:17.662Z,11.25
2023-05-09T12:53:17.633Z,11.25
2023-05-09T12:54:17.685Z,11.25
2023-05-09T12:55:17.635Z,11.25
2023-05-09T12:56:17.652Z,11.25
2023-05-09T12:57:17.644Z,11.25
2023-05-09T12:58:17.641Z,11.25
2023-05-09T12:59:17.645Z,11.25
2023-05-09T13:00:17.645Z,11.25
2023-05-09T13:01:17.733Z,11.25
2023-05-09T13:02:17.732Z,11.25
2023-05-09T13:03:17.685Z,5.63
2023-05-09T13:04:17.637Z,5.63
2023-05-09T13:05:17.813Z,5.63